Paterson, Washington
Current Conditions -  °F | °C
As of 7:53 AM on Wednesday 26 Nov 2014 (Local Time) from KHRI Reporting Station
Clear Clear  
Wind Chill: 57°   Ceiling: Unl
Heat Index: 57°   Visibility: 10mi
Dew Point: 42°   Wind: 8mph
Humidity: 57%   Direction: 220°SW
Pressure: 30.17"   Gusts: NA
Location:  45.94°N, 119.6°W
Report Text: KHRI 261553Z AUTO 22007KT 10SM CLR 14/06 A3017 RMK AO2 SLP217 T01390056
Loading
Personal Weather Stations






























Interactive Weather Map New forecast layout! Learn more

10-Day Weather Forecast

Advertisements
Track Severe Weather on mobile